sensor_id;sensor_type;location;lat;lon;timestamp;P1;durP1;ratioP1;P2;durP2;ratioP2
9496;SDS011;4786;51.270;4.456;2023-04-25T00:02:21;12.83;;;5.37;;
9496;SDS011;4786;51.270;4.456;2023-04-25T00:04:47;10.57;;;5.07;;
9496;SDS011;4786;51.270;4.456;2023-04-25T00:07:14;12.00;;;4.83;;
9496;SDS011;4786;51.270;4.456;2023-04-25T00:09:40;13.83;;;5.27;;
9496;SDS011;4786;51.270;4.456;2023-04-25T00:12:06;13.67;;;4.90;;
9496;SDS011;4786;51.270;4.456;2023-04-25T00:14:32;12.80;;;4.97;;
9496;SDS011;4786;51.270;4.456;2023-04-25T00:17:00;15.27;;;5.20;;
9496;SDS011;4786;51.270;4.456;2023-04-25T00:19:27;9.93;;;4.20;;
9496;SDS011;4786;51.270;4.456;2023-04-25T00:21:54;9.27;;;4.47;;
9496;SDS011;4786;51.270;4.456;2023-04-25T00:24:20;11.90;;;5.00;;
9496;SDS011;4786;51.270;4.456;2023-04-25T00:26:47;12.87;;;4.87;;
9496;SDS011;4786;51.270;4.456;2023-04-25T00:29:13;11.50;;;4.57;;
9496;SDS011;4786;51.270;4.456;2023-04-25T00:31:38;11.83;;;4.87;;
9496;SDS011;4786;51.270;4.456;2023-04-25T00:34:05;8.93;;;4.40;;
9496;SDS011;4786;51.270;4.456;2023-04-25T00:36:32;11.53;;;4.73;;
9496;SDS011;4786;51.270;4.456;2023-04-25T00:38:58;11.23;;;4.60;;
9496;SDS011;4786;51.270;4.456;2023-04-25T00:41:24;9.67;;;4.67;;
9496;SDS011;4786;51.270;4.456;2023-04-25T00:43:51;9.37;;;4.37;;
9496;SDS011;4786;51.270;4.456;2023-04-25T00:46:19;8.10;;;4.43;;
9496;SDS011;4786;51.270;4.456;2023-04-25T00:48:44;9.43;;;4.60;;
9496;SDS011;4786;51.270;4.456;2023-04-25T00:51:12;7.30;;;4.30;;
9496;SDS011;4786;51.270;4.456;2023-04-25T00:53:41;8.83;;;4.13;;
9496;SDS011;4786;51.270;4.456;2023-04-25T00:56:08;9.47;;;3.97;;
9496;SDS011;4786;51.270;4.456;2023-04-25T00:58:34;9.40;;;4.50;;
9496;SDS011;4786;51.270;4.456;2023-04-25T01:01:00;6.23;;;3.47;;
9496;SDS011;4786;51.270;4.456;2023-04-25T01:03:26;6.50;;;3.73;;
9496;SDS011;4786;51.270;4.456;2023-04-25T01:05:53;9.80;;;4.00;;
9496;SDS011;4786;51.270;4.456;2023-04-25T01:08:21;7.27;;;4.03;;
9496;SDS011;4786;51.270;4.456;2023-04-25T01:10:50;8.20;;;4.17;;
9496;SDS011;4786;51.270;4.456;2023-04-25T01:13:15;8.60;;;4.10;;
9496;SDS011;4786;51.270;4.456;2023-04-25T01:15:42;8.97;;;4.80;;
9496;SDS011;4786;51.270;4.456;2023-04-25T01:18:08;10.27;;;4.70;;
9496;SDS011;4786;51.270;4.456;2023-04-25T01:20:34;8.67;;;4.00;;
9496;SDS011;4786;51.270;4.456;2023-04-25T01:23:02;9.33;;;4.40;;
9496;SDS011;4786;51.270;4.456;2023-04-25T01:25:29;9.10;;;4.50;;
9496;SDS011;4786;51.270;4.456;2023-04-25T01:27:56;7.83;;;3.77;;
9496;SDS011;4786;51.270;4.456;2023-04-25T01:30:23;7.47;;;4.00;;
9496;SDS011;4786;51.270;4.456;2023-04-25T01:32:51;8.53;;;4.20;;
9496;SDS011;4786;51.270;4.456;2023-04-25T01:35:19;11.27;;;4.57;;
9496;SDS011;4786;51.270;4.456;2023-04-25T01:37:45;8.80;;;4.00;;
9496;SDS011;4786;51.270;4.456;2023-04-25T01:40:12;12.47;;;4.70;;
9496;SDS011;4786;51.270;4.456;2023-04-25T01:42:39;9.77;;;4.40;;
9496;SDS011;4786;51.270;4.456;2023-04-25T01:45:07;10.77;;;4.53;;
9496;SDS011;4786;51.270;4.456;2023-04-25T01:47:34;13.40;;;4.60;;
9496;SDS011;4786;51.270;4.456;2023-04-25T01:50:01;9.77;;;4.43;;
9496;SDS011;4786;51.270;4.456;2023-04-25T01:52:28;9.37;;;4.80;;
9496;SDS011;4786;51.270;4.456;2023-04-25T01:54:55;11.03;;;5.00;;
9496;SDS011;4786;51.270;4.456;2023-04-25T01:57:23;11.67;;;5.10;;
9496;SDS011;4786;51.270;4.456;2023-04-25T01:59:48;11.67;;;4.83;;
9496;SDS011;4786;51.270;4.456;2023-04-25T02:02:15;11.80;;;4.57;;
9496;SDS011;4786;51.270;4.456;2023-04-25T02:04:41;12.60;;;5.00;;
9496;SDS011;4786;51.270;4.456;2023-04-25T02:07:07;13.70;;;5.43;;
9496;SDS011;4786;51.270;4.456;2023-04-25T02:09:33;12.70;;;5.17;;
9496;SDS011;4786;51.270;4.456;2023-04-25T02:11:58;10.87;;;4.37;;
9496;SDS011;4786;51.270;4.456;2023-04-25T02:14:24;15.50;;;5.20;;
9496;SDS011;4786;51.270;4.456;2023-04-25T02:16:50;14.07;;;5.50;;
9496;SDS011;4786;51.270;4.456;2023-04-25T02:19:16;17.40;;;5.63;;
9496;SDS011;4786;51.270;4.456;2023-04-25T02:21:42;12.83;;;4.80;;
9496;SDS011;4786;51.270;4.456;2023-04-25T02:24:08;13.87;;;5.00;;
9496;SDS011;4786;51.270;4.456;2023-04-25T02:26:34;14.23;;;4.90;;
9496;SDS011;4786;51.270;4.456;2023-04-25T02:29:00;12.63;;;5.00;;
9496;SDS011;4786;51.270;4.456;2023-04-25T02:31:26;12.73;;;4.67;;
9496;SDS011;4786;51.270;4.456;2023-04-25T02:33:52;11.27;;;4.77;;
9496;SDS011;4786;51.270;4.456;2023-04-25T02:36:18;12.57;;;4.87;;
9496;SDS011;4786;51.270;4.456;2023-04-25T02:38:44;14.20;;;5.13;;
9496;SDS011;4786;51.270;4.456;2023-04-25T02:41:09;15.67;;;5.00;;
9496;SDS011;4786;51.270;4.456;2023-04-25T02:43:35;13.57;;;5.00;;
9496;SDS011;4786;51.270;4.456;2023-04-25T02:46:01;12.63;;;5.00;;
9496;SDS011;4786;51.270;4.456;2023-04-25T02:48:28;12.57;;;5.20;;
9496;SDS011;4786;51.270;4.456;2023-04-25T02:50:55;11.23;;;4.60;;
9496;SDS011;4786;51.270;4.456;2023-04-25T02:53:20;8.27;;;3.93;;
9496;SDS011;4786;51.270;4.456;2023-04-25T02:55:46;10.50;;;4.37;;
9496;SDS011;4786;51.270;4.456;2023-04-25T02:58:12;16.77;;;5.70;;
9496;SDS011;4786;51.270;4.456;2023-04-25T03:00:38;13.87;;;5.40;;
9496;SDS011;4786;51.270;4.456;2023-04-25T03:03:04;11.97;;;5.17;;
9496;SDS011;4786;51.270;4.456;2023-04-25T03:05:30;14.33;;;5.33;;
9496;SDS011;4786;51.270;4.456;2023-04-25T03:07:56;9.90;;;4.40;;
9496;SDS011;4786;51.270;4.456;2023-04-25T03:10:22;10.17;;;5.03;;
9496;SDS011;4786;51.270;4.456;2023-04-25T03:12:49;13.07;;;4.97;;
9496;SDS011;4786;51.270;4.456;2023-04-25T03:15:15;13.43;;;5.13;;
9496;SDS011;4786;51.270;4.456;2023-04-25T03:17:41;12.47;;;5.33;;
9496;SDS011;4786;51.270;4.456;2023-04-25T03:20:08;10.23;;;4.67;;
9496;SDS011;4786;51.270;4.456;2023-04-25T03:22:34;11.50;;;4.77;;
9496;SDS011;4786;51.270;4.456;2023-04-25T03:25:00;15.97;;;6.07;;
9496;SDS011;4786;51.270;4.456;2023-04-25T03:27:26;13.40;;;5.13;;
9496;SDS011;4786;51.270;4.456;2023-04-25T03:29:52;16.13;;;5.60;;
9496;SDS011;4786;51.270;4.456;2023-04-25T03:32:18;12.97;;;4.93;;
9496;SDS011;4786;51.270;4.456;2023-04-25T03:34:44;14.87;;;5.27;;
9496;SDS011;4786;51.270;4.456;2023-04-25T03:37:10;11.97;;;5.00;;
9496;SDS011;4786;51.270;4.456;2023-04-25T03:39:36;16.30;;;5.30;;
9496;SDS011;4786;51.270;4.456;2023-04-25T03:42:02;12.40;;;5.07;;
9496;SDS011;4786;51.270;4.456;2023-04-25T03:44:28;13.23;;;4.97;;
9496;SDS011;4786;51.270;4.456;2023-04-25T03:46:55;11.63;;;4.60;;
9496;SDS011;4786;51.270;4.456;2023-04-25T03:49:20;13.33;;;5.30;;
9496;SDS011;4786;51.270;4.456;2023-04-25T03:51:46;16.90;;;5.27;;
9496;SDS011;4786;51.270;4.456;2023-04-25T03:54:12;14.17;;;5.33;;
9496;SDS011;4786;51.270;4.456;2023-04-25T03:56:38;12.83;;;5.37;;
9496;SDS011;4786;51.270;4.456;2023-04-25T03:59:04;12.17;;;5.13;;
9496;SDS011;4786;51.270;4.456;2023-04-25T04:01:30;13.73;;;5.00;;
9496;SDS011;4786;51.270;4.456;2023-04-25T04:03:55;11.97;;;4.43;;
9496;SDS011;4786;51.270;4.456;2023-04-25T04:06:21;15.13;;;4.10;;
9496;SDS011;4786;51.270;4.456;2023-04-25T04:08:47;11.67;;;4.70;;
9496;SDS011;4786;51.270;4.456;2023-04-25T04:11:13;10.93;;;4.53;;
9496;SDS011;4786;51.270;4.456;2023-04-25T04:13:39;12.50;;;4.30;;
9496;SDS011;4786;51.270;4.456;2023-04-25T04:16:05;9.53;;;4.40;;
9496;SDS011;4786;51.270;4.456;2023-04-25T04:18:31;8.47;;;3.77;;
9496;SDS011;4786;51.270;4.456;2023-04-25T04:20:58;8.47;;;3.73;;
9496;SDS011;4786;51.270;4.456;2023-04-25T04:23:25;7.77;;;3.57;;
9496;SDS011;4786;51.270;4.456;2023-04-25T04:25:52;7.50;;;3.83;;
9496;SDS011;4786;51.270;4.456;2023-04-25T04:28:19;12.60;;;3.87;;
9496;SDS011;4786;51.270;4.456;2023-04-25T04:30:45;11.33;;;3.73;;
9496;SDS011;4786;51.270;4.456;2023-04-25T04:33:11;7.73;;;4.00;;
9496;SDS011;4786;51.270;4.456;2023-04-25T04:35:37;10.47;;;3.97;;
9496;SDS011;4786;51.270;4.456;2023-04-25T04:38:03;9.03;;;3.50;;
9496;SDS011;4786;51.270;4.456;2023-04-25T04:40:29;6.77;;;3.60;;
9496;SDS011;4786;51.270;4.456;2023-04-25T04:42:56;11.37;;;3.73;;
9496;SDS011;4786;51.270;4.456;2023-04-25T04:45:22;9.37;;;3.20;;
9496;SDS011;4786;51.270;4.456;2023-04-25T04:47:48;7.00;;;3.40;;
9496;SDS011;4786;51.270;4.456;2023-04-25T04:50:15;4.13;;;3.13;;
9496;SDS011;4786;51.270;4.456;2023-04-25T04:52:41;6.37;;;3.50;;
9496;SDS011;4786;51.270;4.456;2023-04-25T04:55:07;8.90;;;3.70;;
9496;SDS011;4786;51.270;4.456;2023-04-25T04:57:34;6.63;;;3.57;;
9496;SDS011;4786;51.270;4.456;2023-04-25T05:00:00;8.53;;;3.70;;
9496;SDS011;4786;51.270;4.456;2023-04-25T05:02:26;7.30;;;3.80;;
9496;SDS011;4786;51.270;4.456;2023-04-25T05:04:52;11.53;;;4.30;;
9496;SDS011;4786;51.270;4.456;2023-04-25T05:07:18;9.83;;;3.90;;
9496;SDS011;4786;51.270;4.456;2023-04-25T05:09:44;9.27;;;4.30;;
9496;SDS011;4786;51.270;4.456;2023-04-25T05:12:10;9.73;;;4.50;;
9496;SDS011;4786;51.270;4.456;2023-04-25T05:14:35;9.53;;;4.37;;
9496;SDS011;4786;51.270;4.456;2023-04-25T05:17:01;10.30;;;4.37;;
9496;SDS011;4786;51.270;4.456;2023-04-25T05:19:29;12.57;;;4.83;;
9496;SDS011;4786;51.270;4.456;2023-04-25T05:21:55;10.67;;;4.73;;
9496;SDS011;4786;51.270;4.456;2023-04-25T05:24:21;9.87;;;4.50;;
9496;SDS011;4786;51.270;4.456;2023-04-25T05:26:47;15.23;;;5.00;;
9496;SDS011;4786;51.270;4.456;2023-04-25T05:29:12;8.73;;;4.30;;
9496;SDS011;4786;51.270;4.456;2023-04-25T05:31:38;10.27;;;4.30;;
9496;SDS011;4786;51.270;4.456;2023-04-25T05:34:04;7.60;;;3.90;;
9496;SDS011;4786;51.270;4.456;2023-04-25T05:36:30;15.37;;;5.13;;
9496;SDS011;4786;51.270;4.456;2023-04-25T05:38:57;9.70;;;4.17;;
9496;SDS011;4786;51.270;4.456;2023-04-25T05:41:23;11.00;;;4.20;;
9496;SDS011;4786;51.270;4.456;2023-04-25T05:43:49;8.13;;;4.03;;
9496;SDS011;4786;51.270;4.456;2023-04-25T05:46:15;11.13;;;3.80;;
9496;SDS011;4786;51.270;4.456;2023-04-25T05:48:42;16.20;;;4.57;;
9496;SDS011;4786;51.270;4.456;2023-04-25T05:51:08;9.57;;;4.10;;
9496;SDS011;4786;51.270;4.456;2023-04-25T05:53:35;7.47;;;4.03;;
9496;SDS011;4786;51.270;4.456;2023-04-25T05:56:01;11.60;;;4.90;;
9496;SDS011;4786;51.270;4.456;2023-04-25T05:58:27;12.03;;;4.33;;
9496;SDS011;4786;51.270;4.456;2023-04-25T06:00:53;8.10;;;3.50;;
9496;SDS011;4786;51.270;4.456;2023-04-25T06:03:20;10.80;;;3.73;;
9496;SDS011;4786;51.270;4.456;2023-04-25T06:05:46;10.50;;;3.53;;
9496;SDS011;4786;51.270;4.456;2023-04-25T06:08:12;8.73;;;3.27;;
9496;SDS011;4786;51.270;4.456;2023-04-25T06:10:38;12.10;;;3.80;;
9496;SDS011;4786;51.270;4.456;2023-04-25T06:13:04;6.90;;;2.93;;
9496;SDS011;4786;51.270;4.456;2023-04-25T06:15:31;9.03;;;3.30;;
9496;SDS011;4786;51.270;4.456;2023-04-25T06:17:59;8.80;;;3.03;;
9496;SDS011;4786;51.270;4.456;2023-04-25T06:20:26;8.53;;;3.40;;
9496;SDS011;4786;51.270;4.456;2023-04-25T06:22:52;7.47;;;3.00;;
9496;SDS011;4786;51.270;4.456;2023-04-25T06:25:18;8.17;;;3.07;;
9496;SDS011;4786;51.270;4.456;2023-04-25T06:27:44;8.50;;;3.13;;
9496;SDS011;4786;51.270;4.456;2023-04-25T06:30:09;8.43;;;3.10;;
9496;SDS011;4786;51.270;4.456;2023-04-25T06:32:37;4.97;;;2.37;;
9496;SDS011;4786;51.270;4.456;2023-04-25T06:35:03;8.80;;;2.70;;
9496;SDS011;4786;51.270;4.456;2023-04-25T06:37:29;9.83;;;2.90;;
9496;SDS011;4786;51.270;4.456;2023-04-25T06:39:56;8.53;;;2.97;;
9496;SDS011;4786;51.270;4.456;2023-04-25T06:42:22;7.70;;;2.87;;
9496;SDS011;4786;51.270;4.456;2023-04-25T06:44:47;6.13;;;2.73;;
9496;SDS011;4786;51.270;4.456;2023-04-25T06:47:14;5.90;;;2.70;;
9496;SDS011;4786;51.270;4.456;2023-04-25T06:49:40;5.37;;;2.80;;
9496;SDS011;4786;51.270;4.456;2023-04-25T06:52:07;7.33;;;3.03;;
9496;SDS011;4786;51.270;4.456;2023-04-25T06:54:33;8.60;;;3.07;;
9496;SDS011;4786;51.270;4.456;2023-04-25T06:56:59;6.90;;;2.70;;
9496;SDS011;4786;51.270;4.456;2023-04-25T06:59:26;8.87;;;3.13;;
9496;SDS011;4786;51.270;4.456;2023-04-25T07:01:51;8.13;;;3.00;;
9496;SDS011;4786;51.270;4.456;2023-04-25T07:04:18;7.80;;;3.20;;
9496;SDS011;4786;51.270;4.456;2023-04-25T07:06:44;10.07;;;2.93;;
9496;SDS011;4786;51.270;4.456;2023-04-25T07:09:10;11.07;;;3.20;;
9496;SDS011;4786;51.270;4.456;2023-04-25T07:11:36;8.77;;;2.87;;
9496;SDS011;4786;51.270;4.456;2023-04-25T07:14:02;8.97;;;3.30;;
9496;SDS011;4786;51.270;4.456;2023-04-25T07:16:28;7.90;;;2.80;;
9496;SDS011;4786;51.270;4.456;2023-04-25T07:18:55;9.80;;;3.00;;
9496;SDS011;4786;51.270;4.456;2023-04-25T07:21:21;10.80;;;2.97;;
9496;SDS011;4786;51.270;4.456;2023-04-25T07:23:47;8.23;;;3.07;;
9496;SDS011;4786;51.270;4.456;2023-04-25T07:26:13;8.87;;;2.93;;
9496;SDS011;4786;51.270;4.456;2023-04-25T07:28:39;8.33;;;3.47;;
9496;SDS011;4786;51.270;4.456;2023-04-25T07:31:05;9.37;;;3.33;;
9496;SDS011;4786;51.270;4.456;2023-04-25T07:33:31;8.20;;;2.97;;
9496;SDS011;4786;51.270;4.456;2023-04-25T07:35:57;8.63;;;3.27;;
9496;SDS011;4786;51.270;4.456;2023-04-25T07:38:23;9.33;;;2.90;;
9496;SDS011;4786;51.270;4.456;2023-04-25T07:40:49;7.83;;;2.70;;
9496;SDS011;4786;51.270;4.456;2023-04-25T07:43:16;6.77;;;2.83;;
9496;SDS011;4786;51.270;4.456;2023-04-25T07:45:45;7.63;;;2.87;;
9496;SDS011;4786;51.270;4.456;2023-04-25T07:48:16;10.10;;;2.97;;
9496;SDS011;4786;51.270;4.456;2023-04-25T07:50:43;6.37;;;2.83;;
9496;SDS011;4786;51.270;4.456;2023-04-25T07:53:09;6.53;;;2.63;;
9496;SDS011;4786;51.270;4.456;2023-04-25T07:55:36;6.30;;;2.30;;
9496;SDS011;4786;51.270;4.456;2023-04-25T07:58:08;6.07;;;2.33;;
9496;SDS011;4786;51.270;4.456;2023-04-25T08:00:35;4.33;;;2.10;;
9496;SDS011;4786;51.270;4.456;2023-04-25T08:03:01;6.73;;;2.20;;
9496;SDS011;4786;51.270;4.456;2023-04-25T08:05:27;4.37;;;2.03;;
9496;SDS011;4786;51.270;4.456;2023-04-25T08:07:54;3.90;;;1.60;;
9496;SDS011;4786;51.270;4.456;2023-04-25T08:10:21;6.93;;;2.33;;
9496;SDS011;4786;51.270;4.456;2023-04-25T08:12:48;6.43;;;2.13;;
9496;SDS011;4786;51.270;4.456;2023-04-25T08:15:14;6.60;;;2.27;;
9496;SDS011;4786;51.270;4.456;2023-04-25T08:17:40;5.17;;;2.10;;
9496;SDS011;4786;51.270;4.456;2023-04-25T08:20:06;6.57;;;1.93;;
9496;SDS011;4786;51.270;4.456;2023-04-25T08:22:33;5.20;;;2.17;;
9496;SDS011;4786;51.270;4.456;2023-04-25T08:24:59;4.20;;;2.20;;
9496;SDS011;4786;51.270;4.456;2023-04-25T08:27:25;9.07;;;2.50;;
9496;SDS011;4786;51.270;4.456;2023-04-25T08:29:51;4.53;;;2.20;;
9496;SDS011;4786;51.270;4.456;2023-04-25T08:32:18;6.37;;;2.50;;
9496;SDS011;4786;51.270;4.456;2023-04-25T08:34:44;6.53;;;2.40;;
9496;SDS011;4786;51.270;4.456;2023-04-25T08:37:11;9.10;;;2.30;;
9496;SDS011;4786;51.270;4.456;2023-04-25T08:39:37;6.90;;;2.30;;
9496;SDS011;4786;51.270;4.456;2023-04-25T08:42:04;7.53;;;3.00;;
9496;SDS011;4786;51.270;4.456;2023-04-25T08:44:35;6.53;;;2.40;;
9496;SDS011;4786;51.270;4.456;2023-04-25T08:47:04;6.13;;;2.57;;
9496;SDS011;4786;51.270;4.456;2023-04-25T08:49:31;6.23;;;2.30;;
9496;SDS011;4786;51.270;4.456;2023-04-25T08:51:59;7.37;;;2.30;;
9496;SDS011;4786;51.270;4.456;2023-04-25T08:54:27;5.33;;;2.10;;
9496;SDS011;4786;51.270;4.456;2023-04-25T08:56:54;5.87;;;2.30;;
9496;SDS011;4786;51.270;4.456;2023-04-25T08:59:21;6.47;;;2.53;;
9496;SDS011;4786;51.270;4.456;2023-04-25T09:01:48;5.90;;;2.17;;
9496;SDS011;4786;51.270;4.456;2023-04-25T09:04:15;5.83;;;2.20;;
9496;SDS011;4786;51.270;4.456;2023-04-25T09:06:42;5.60;;;2.10;;
9496;SDS011;4786;51.270;4.456;2023-04-25T09:09:08;6.70;;;2.13;;
9496;SDS011;4786;51.270;4.456;2023-04-25T09:11:36;7.03;;;2.03;;
9496;SDS011;4786;51.270;4.456;2023-04-25T09:14:14;5.23;;;1.80;;
9496;SDS011;4786;51.270;4.456;2023-04-25T09:19:32;5.07;;;1.90;;
9496;SDS011;4786;51.270;4.456;2023-04-25T09:22:00;8.63;;;1.70;;
9496;SDS011;4786;51.270;4.456;2023-04-25T09:24:30;4.07;;;1.57;;
9496;SDS011;4786;51.270;4.456;2023-04-25T09:27:07;5.00;;;1.90;;
9496;SDS011;4786;51.270;4.456;2023-04-25T09:29:36;5.57;;;1.60;;
9496;SDS011;4786;51.270;4.456;2023-04-25T09:32:19;3.07;;;1.80;;
9496;SDS011;4786;51.270;4.456;2023-04-25T09:34:56;6.83;;;1.90;;
9496;SDS011;4786;51.270;4.456;2023-04-25T09:37:26;5.00;;;1.70;;
9496;SDS011;4786;51.270;4.456;2023-04-25T09:39:57;4.33;;;1.93;;
9496;SDS011;4786;51.270;4.456;2023-04-25T09:42:24;12.97;;;2.57;;
9496;SDS011;4786;51.270;4.456;2023-04-25T09:44:52;12.97;;;2.30;;
9496;SDS011;4786;51.270;4.456;2023-04-25T09:47:19;5.53;;;2.00;;
9496;SDS011;4786;51.270;4.456;2023-04-25T09:49:48;7.23;;;1.73;;
9496;SDS011;4786;51.270;4.456;2023-04-25T09:52:15;5.20;;;1.80;;
9496;SDS011;4786;51.270;4.456;2023-04-25T09:54:42;7.63;;;1.93;;
9496;SDS011;4786;51.270;4.456;2023-04-25T09:59:47;4.83;;;1.73;;
9496;SDS011;4786;51.270;4.456;2023-04-25T10:02:14;5.47;;;1.90;;
9496;SDS011;4786;51.270;4.456;2023-04-25T10:04:41;8.37;;;1.60;;
9496;SDS011;4786;51.270;4.456;2023-04-25T10:07:09;4.77;;;1.60;;
9496;SDS011;4786;51.270;4.456;2023-04-25T10:09:36;4.60;;;1.70;;
9496;SDS011;4786;51.270;4.456;2023-04-25T10:12:04;4.57;;;1.83;;
9496;SDS011;4786;51.270;4.456;2023-04-25T10:14:31;5.70;;;1.70;;
9496;SDS011;4786;51.270;4.456;2023-04-25T10:16:57;3.57;;;1.47;;
9496;SDS011;4786;51.270;4.456;2023-04-25T10:19:24;4.20;;;1.67;;
9496;SDS011;4786;51.270;4.456;2023-04-25T10:21:52;4.77;;;1.90;;
9496;SDS011;4786;51.270;4.456;2023-04-25T10:24:27;4.87;;;1.70;;
9496;SDS011;4786;51.270;4.456;2023-04-25T10:26:53;4.23;;;2.00;;
9496;SDS011;4786;51.270;4.456;2023-04-25T10:29:22;4.90;;;1.77;;
9496;SDS011;4786;51.270;4.456;2023-04-25T10:31:49;3.70;;;1.77;;
9496;SDS011;4786;51.270;4.456;2023-04-25T10:34:16;3.63;;;1.60;;
9496;SDS011;4786;51.270;4.456;2023-04-25T10:36:42;17.40;;;3.77;;
9496;SDS011;4786;51.270;4.456;2023-04-25T10:39:13;7.73;;;2.17;;
9496;SDS011;4786;51.270;4.456;2023-04-25T10:41:48;14.73;;;2.73;;
9496;SDS011;4786;51.270;4.456;2023-04-25T10:44:20;6.77;;;1.83;;
9496;SDS011;4786;51.270;4.456;2023-04-25T10:46:45;22.23;;;3.53;;
9496;SDS011;4786;51.270;4.456;2023-04-25T10:49:27;8.33;;;2.57;;
9496;SDS011;4786;51.270;4.456;2023-04-25T10:52:10;13.67;;;2.20;;
9496;SDS011;4786;51.270;4.456;2023-04-25T10:54:40;4.77;;;1.80;;
9496;SDS011;4786;51.270;4.456;2023-04-25T10:57:07;4.57;;;1.50;;
9496;SDS011;4786;51.270;4.456;2023-04-25T10:59:33;4.97;;;2.03;;
9496;SDS011;4786;51.270;4.456;2023-04-25T11:01:59;3.07;;;1.73;;
9496;SDS011;4786;51.270;4.456;2023-04-25T11:04:37;7.07;;;1.90;;
9496;SDS011;4786;51.270;4.456;2023-04-25T11:09:57;4.80;;;1.60;;
9496;SDS011;4786;51.270;4.456;2023-04-25T11:12:25;6.57;;;1.50;;
9496;SDS011;4786;51.270;4.456;2023-04-25T11:14:57;3.17;;;1.57;;
9496;SDS011;4786;51.270;4.456;2023-04-25T11:17:26;4.67;;;1.80;;
9496;SDS011;4786;51.270;4.456;2023-04-25T11:19:51;4.60;;;1.50;;
9496;SDS011;4786;51.270;4.456;2023-04-25T11:22:19;4.07;;;1.70;;
9496;SDS011;4786;51.270;4.456;2023-04-25T11:24:46;2.43;;;1.37;;
9496;SDS011;4786;51.270;4.456;2023-04-25T11:27:13;5.20;;;1.40;;
9496;SDS011;4786;51.270;4.456;2023-04-25T11:29:40;2.27;;;1.50;;
9496;SDS011;4786;51.270;4.456;2023-04-25T11:32:06;3.20;;;1.40;;
9496;SDS011;4786;51.270;4.456;2023-04-25T11:34:32;3.13;;;1.40;;
9496;SDS011;4786;51.270;4.456;2023-04-25T11:36:59;3.87;;;1.30;;
9496;SDS011;4786;51.270;4.456;2023-04-25T11:39:27;6.77;;;2.13;;
9496;SDS011;4786;51.270;4.456;2023-04-25T11:41:53;3.90;;;1.60;;
9496;SDS011;4786;51.270;4.456;2023-04-25T11:44:20;4.00;;;1.30;;
9496;SDS011;4786;51.270;4.456;2023-04-25T11:46:47;4.37;;;1.53;;
9496;SDS011;4786;51.270;4.456;2023-04-25T11:49:14;4.33;;;1.87;;
9496;SDS011;4786;51.270;4.456;2023-04-25T11:51:40;4.10;;;1.43;;
9496;SDS011;4786;51.270;4.456;2023-04-25T11:54:08;3.33;;;1.33;;
9496;SDS011;4786;51.270;4.456;2023-04-25T11:56:33;3.77;;;1.70;;
9496;SDS011;4786;51.270;4.456;2023-04-25T11:59:00;3.13;;;1.33;;
9496;SDS011;4786;51.270;4.456;2023-04-25T12:01:32;2.47;;;1.30;;
9496;SDS011;4786;51.270;4.456;2023-04-25T12:06:38;3.70;;;1.53;;
9496;SDS011;4786;51.270;4.456;2023-04-25T12:09:07;5.57;;;1.87;;
9496;SDS011;4786;51.270;4.456;2023-04-25T12:14:34;4.87;;;1.53;;
9496;SDS011;4786;51.270;4.456;2023-04-25T12:17:01;23.20;;;3.53;;
9496;SDS011;4786;51.270;4.456;2023-04-25T12:19:35;7.03;;;1.50;;
9496;SDS011;4786;51.270;4.456;2023-04-25T12:22:02;14.37;;;2.60;;
9496;SDS011;4786;51.270;4.456;2023-04-25T12:24:44;21.10;;;3.23;;
9496;SDS011;4786;51.270;4.456;2023-04-25T12:27:10;13.03;;;2.93;;
9496;SDS011;4786;51.270;4.456;2023-04-25T12:29:49;4.90;;;1.80;;
9496;SDS011;4786;51.270;4.456;2023-04-25T12:32:19;7.03;;;1.80;;
9496;SDS011;4786;51.270;4.456;2023-04-25T12:34:45;3.03;;;1.50;;
9496;SDS011;4786;51.270;4.456;2023-04-25T12:37:11;4.83;;;1.70;;
9496;SDS011;4786;51.270;4.456;2023-04-25T12:39:37;7.53;;;2.07;;
9496;SDS011;4786;51.270;4.456;2023-04-25T12:42:04;4.13;;;1.53;;
9496;SDS011;4786;51.270;4.456;2023-04-25T12:44:30;4.10;;;1.47;;
9496;SDS011;4786;51.270;4.456;2023-04-25T12:46:55;3.63;;;1.60;;
9496;SDS011;4786;51.270;4.456;2023-04-25T12:49:21;3.97;;;1.50;;
9496;SDS011;4786;51.270;4.456;2023-04-25T12:51:48;3.03;;;1.47;;
9496;SDS011;4786;51.270;4.456;2023-04-25T12:54:14;2.07;;;1.37;;
9496;SDS011;4786;51.270;4.456;2023-04-25T12:56:40;2.57;;;1.50;;
9496;SDS011;4786;51.270;4.456;2023-04-25T12:59:07;5.30;;;1.37;;
9496;SDS011;4786;51.270;4.456;2023-04-25T13:01:32;5.73;;;1.77;;
9496;SDS011;4786;51.270;4.456;2023-04-25T13:03:58;3.00;;;1.40;;
9496;SDS011;4786;51.270;4.456;2023-04-25T13:06:25;4.53;;;1.70;;
9496;SDS011;4786;51.270;4.456;2023-04-25T13:08:51;4.07;;;1.60;;
9496;SDS011;4786;51.270;4.456;2023-04-25T13:11:17;4.23;;;1.30;;
9496;SDS011;4786;51.270;4.456;2023-04-25T13:13:43;4.70;;;1.23;;
9496;SDS011;4786;51.270;4.456;2023-04-25T13:16:09;4.07;;;1.60;;
9496;SDS011;4786;51.270;4.456;2023-04-25T13:18:36;6.27;;;1.70;;
9496;SDS011;4786;51.270;4.456;2023-04-25T13:21:02;6.57;;;1.77;;
9496;SDS011;4786;51.270;4.456;2023-04-25T13:23:28;5.37;;;1.50;;
9496;SDS011;4786;51.270;4.456;2023-04-25T13:25:55;4.50;;;1.47;;
9496;SDS011;4786;51.270;4.456;2023-04-25T13:28:23;4.43;;;1.77;;
9496;SDS011;4786;51.270;4.456;2023-04-25T13:30:49;2.33;;;1.43;;
9496;SDS011;4786;51.270;4.456;2023-04-25T13:33:16;5.43;;;1.30;;
9496;SDS011;4786;51.270;4.456;2023-04-25T13:35:44;8.67;;;2.03;;
9496;SDS011;4786;51.270;4.456;2023-04-25T13:38:19;5.83;;;1.83;;
9496;SDS011;4786;51.270;4.456;2023-04-25T13:40:49;4.37;;;1.40;;
9496;SDS011;4786;51.270;4.456;2023-04-25T13:43:17;3.70;;;1.60;;
9496;SDS011;4786;51.270;4.456;2023-04-25T13:45:44;2.57;;;1.13;;
9496;SDS011;4786;51.270;4.456;2023-04-25T13:48:10;3.67;;;1.53;;
9496;SDS011;4786;51.270;4.456;2023-04-25T13:50:35;4.77;;;1.40;;
9496;SDS011;4786;51.270;4.456;2023-04-25T13:53:02;4.10;;;1.77;;
9496;SDS011;4786;51.270;4.456;2023-04-25T13:55:28;2.80;;;1.47;;
9496;SDS011;4786;51.270;4.456;2023-04-25T13:57:53;5.20;;;1.80;;
9496;SDS011;4786;51.270;4.456;2023-04-25T14:00:20;3.87;;;1.50;;
9496;SDS011;4786;51.270;4.456;2023-04-25T14:02:46;4.10;;;1.73;;
9496;SDS011;4786;51.270;4.456;2023-04-25T14:05:11;6.00;;;1.93;;
9496;SDS011;4786;51.270;4.456;2023-04-25T14:07:38;2.60;;;1.40;;
9496;SDS011;4786;51.270;4.456;2023-04-25T14:10:04;3.13;;;1.60;;
9496;SDS011;4786;51.270;4.456;2023-04-25T14:12:31;5.07;;;1.90;;
9496;SDS011;4786;51.270;4.456;2023-04-25T14:14:57;2.33;;;1.40;;
9496;SDS011;4786;51.270;4.456;2023-04-25T14:17:23;5.63;;;1.80;;
9496;SDS011;4786;51.270;4.456;2023-04-25T14:19:49;2.87;;;1.33;;
9496;SDS011;4786;51.270;4.456;2023-04-25T14:22:15;4.10;;;1.67;;
9496;SDS011;4786;51.270;4.456;2023-04-25T14:24:42;5.30;;;1.70;;
9496;SDS011;4786;51.270;4.456;2023-04-25T14:27:07;4.07;;;1.80;;
9496;SDS011;4786;51.270;4.456;2023-04-25T14:29:33;4.27;;;1.77;;
9496;SDS011;4786;51.270;4.456;2023-04-25T14:32:00;3.63;;;1.50;;
9496;SDS011;4786;51.270;4.456;2023-04-25T14:34:26;3.50;;;2.20;;
9496;SDS011;4786;51.270;4.456;2023-04-25T14:36:52;5.83;;;1.60;;
9496;SDS011;4786;51.270;4.456;2023-04-25T14:39:19;6.20;;;1.97;;
9496;SDS011;4786;51.270;4.456;2023-04-25T14:41:45;7.37;;;1.60;;
9496;SDS011;4786;51.270;4.456;2023-04-25T14:44:10;2.87;;;1.40;;
9496;SDS011;4786;51.270;4.456;2023-04-25T14:46:37;6.47;;;1.80;;
9496;SDS011;4786;51.270;4.456;2023-04-25T14:49:03;4.83;;;1.70;;
9496;SDS011;4786;51.270;4.456;2023-04-25T14:51:29;4.83;;;1.67;;
9496;SDS011;4786;51.270;4.456;2023-04-25T14:53:55;3.73;;;1.50;;
9496;SDS011;4786;51.270;4.456;2023-04-25T14:56:22;8.30;;;2.07;;
9496;SDS011;4786;51.270;4.456;2023-04-25T14:58:48;3.40;;;1.50;;
9496;SDS011;4786;51.270;4.456;2023-04-25T15:01:13;8.63;;;1.70;;
9496;SDS011;4786;51.270;4.456;2023-04-25T15:03:40;4.50;;;1.50;;
9496;SDS011;4786;51.270;4.456;2023-04-25T15:06:06;5.00;;;1.93;;
9496;SDS011;4786;51.270;4.456;2023-04-25T15:08:32;6.87;;;1.60;;
9496;SDS011;4786;51.270;4.456;2023-04-25T15:10:59;4.20;;;1.70;;
9496;SDS011;4786;51.270;4.456;2023-04-25T15:13:25;9.60;;;2.10;;
9496;SDS011;4786;51.270;4.456;2023-04-25T15:15:52;3.40;;;1.90;;
9496;SDS011;4786;51.270;4.456;2023-04-25T15:18:20;4.63;;;1.70;;
9496;SDS011;4786;51.270;4.456;2023-04-25T15:20:50;3.37;;;1.43;;
9496;SDS011;4786;51.270;4.456;2023-04-25T15:23:17;4.20;;;1.60;;
9496;SDS011;4786;51.270;4.456;2023-04-25T15:25:44;3.97;;;1.63;;